Time;durP1;ratioP1;P1;durP2;ratioP2;P2;SDS_P1;SDS_P2;PMS_P1;PMS_P2;Temp;Humidity;BMP_temperature;BMP_pressure;BME280_temperature;BME280_humidity;BME280_pressure;Samples;Min_cycle;Max_cycle;Signal;HPM_P1;HPM_P2
2022/08/09 00:01:15;;;;;;;;;;;17.00;99.90;;;;;;5096213;28;19962;-64
2022/08/09 00:03:41;;;;;;;;;;;16.90;99.90;;;;;;5095963;28;19908;-64
2022/08/09 00:06:06;;;;;;;;;;;17.00;99.90;;;;;;5095761;28;19923;-64
2022/08/09 00:08:32;;;;;;;;;;;16.90;99.90;;;;;;5095847;28;19908;-64
2022/08/09 00:10:58;;;;;;;;;;;16.90;99.90;;;;;;5095790;28;19908;-64
2022/08/09 00:13:24;;;;;;;;;;;16.80;99.90;;;;;;5077725;28;19909;-65
2022/08/09 00:15:49;;;;;;;;;;;16.80;99.90;;;;;;5095741;28;19908;-64
2022/08/09 00:18:16;;;;;;;;;;;16.80;99.90;;;;;;5095920;28;20384;-64
2022/08/09 00:20:41;;;;;;;;;;;16.80;99.90;;;;;;5095843;28;20282;-64
2022/08/09 00:23:07;;;;;;;;;;;16.80;99.90;;;;;;5095806;28;19908;-64
2022/08/09 00:25:32;;;;;;;;;;;16.70;99.90;;;;;;5095723;28;19912;-64
2022/08/09 00:27:57;;;;;;;;;;;16.70;99.90;;;;;;5095445;28;19934;-64
2022/08/09 00:30:23;;;;;;;;;;;16.70;99.90;;;;;;5095607;28;20036;-64
2022/08/09 00:32:48;;;;;;;;;;;16.70;99.90;;;;;;5095594;28;20011;-64
2022/08/09 00:35:14;;;;;;;;;;;16.60;99.90;;;;;;5095308;28;20283;-64
2022/08/09 00:37:39;;;;;;;;;;;16.60;99.90;;;;;;5095517;28;19919;-64
2022/08/09 00:40:05;;;;;;;;;;;16.60;99.90;;;;;;5095524;28;20385;-64
2022/08/09 00:42:31;;;;;;;;;;;16.60;99.90;;;;;;5095438;28;19908;-64
2022/08/09 00:44:56;;;;;;;;;;;16.60;99.90;;;;;;5094483;28;20366;-64
2022/08/09 00:47:22;;;;;;;;;;;16.60;99.90;;;;;;5094545;28;19919;-64
2022/08/09 00:49:47;;;;;;;;;;;16.50;99.90;;;;;;5095295;28;19915;-64
2022/08/09 00:52:13;;;;;;;;;;;16.50;99.90;;;;;;5095264;28;19951;-64
2022/08/09 00:54:38;;;;;;;;;;;16.50;99.90;;;;;;5094949;28;19912;-64
2022/08/09 00:57:04;;;;;;;;;;;16.50;99.90;;;;;;5095178;28;20406;-64
2022/08/09 00:59:29;;;;;;;;;;;16.50;99.90;;;;;;5095091;28;20321;-64
2022/08/09 01:01:57;;;;;;;;;;;16.50;99.90;;;;;;5094735;28;19908;-64
2022/08/09 01:04:31;;;;;;;;;;;16.40;99.90;;;;;;5095037;28;19908;-64
2022/08/09 01:07:02;;;;;;;;;;;16.40;99.90;;;;;;5094430;28;20028;-64
2022/08/09 01:09:36;;;;;;;;;;;16.40;99.90;;;;;;5094692;28;19912;-63
2022/08/09 01:12:06;;;;;;;;;;;16.30;99.90;;;;;;5094917;28;19915;-63
2022/08/09 01:14:33;;;;;;;;;;;16.30;99.90;;;;;;5094882;28;19908;-64
2022/08/09 01:17:05;;;;;;;;;;;16.30;99.90;;;;;;5094822;28;19999;-63
2022/08/09 01:19:37;;;;;;;;;;;16.30;99.90;;;;;;5094513;28;19908;-63
2022/08/09 01:22:12;;;;;;;;;;;16.20;99.90;;;;;;5094445;28;19931;-64
2022/08/09 01:24:57;;;;;;;;;;;16.20;99.90;;;;;;5094615;28;19908;-63
2022/08/09 01:27:23;;;;;;;;;;;16.20;99.90;;;;;;5094108;28;19912;-63
2022/08/09 01:29:53;;;;;;;;;;;16.30;99.90;;;;;;5076526;28;20400;-63
2022/08/09 01:32:20;;;;;;;;;;;16.20;99.90;;;;;;5094539;28;19916;-63
2022/08/09 01:34:47;;;;;;;;;;;16.20;99.90;;;;;;5094533;28;19912;-63
2022/08/09 01:37:14;;;;;;;;;;;16.20;99.90;;;;;;5094468;28;20377;-63
2022/08/09 01:39:40;;;;;;;;;;;16.10;99.90;;;;;;5094160;28;20358;-64
2022/08/09 01:42:06;;;;;;;;;;;16.10;99.90;;;;;;5076349;28;19908;-63
2022/08/09 01:44:32;;;;;;;;;;;;;;;;;;5093929;28;19930;-63
2022/08/09 01:46:58;;;;;;;;;;;;;;;;;;5093944;28;19916;-63
2022/08/09 01:49:24;;;;;;;;;;;16.00;99.90;;;;;;5094255;28;19998;-63
2022/08/09 01:51:51;;;;;;;;;;;16.00;99.90;;;;;;5075947;28;19908;-63
2022/08/09 01:54:18;;;;;;;;;;;16.00;99.90;;;;;;5094181;28;20361;-63
2022/08/09 01:56:45;;;;;;;;;;;16.00;99.90;;;;;;5093830;28;19956;-63
2022/08/09 01:59:13;;;;;;;;;;;16.00;99.90;;;;;;5094126;28;20367;-63
2022/08/09 02:01:40;;;;;;;;;;;15.90;99.90;;;;;;5075910;28;19909;-63
2022/08/09 02:04:06;;;;;;;;;;;15.90;99.90;;;;;;5094067;28;19912;-64
2022/08/09 02:09:21;;;;;;;;;;;15.90;99.90;;;;;;5093036;28;21546;-64
2022/08/09 02:11:47;;;;;;;;;;;15.80;99.90;;;;;;5093751;28;19912;-64
2022/08/09 02:14:14;;;;;;;;;;;15.80;99.90;;;;;;5093670;28;19999;-63
2022/08/09 02:16:41;;;;;;;;;;;15.70;99.90;;;;;;5075628;28;20274;-64
2022/08/09 02:19:06;;;;;;;;;;;15.70;99.90;;;;;;5093802;28;20292;-64
2022/08/09 02:21:35;;;;;;;;;;;15.70;99.90;;;;;;5093716;28;19912;-64
2022/08/09 02:24:03;;;;;;;;;;;15.60;99.90;;;;;;5094075;28;20358;-64
2022/08/09 02:26:33;;;;;;;;;;;15.60;99.90;;;;;;5093636;28;19919;-64
2022/08/09 02:29:00;;;;;;;;;;;15.50;99.90;;;;;;5093740;28;19908;-63
2022/08/09 02:31:29;;;;;;;;;;;15.50;99.90;;;;;;5093893;28;19953;-63
2022/08/09 02:33:56;;;;;;;;;;;15.50;99.90;;;;;;5093883;28;20298;-63
2022/08/09 02:36:26;;;;;;;;;;;15.40;99.90;;;;;;5093691;28;19931;-64
2022/08/09 02:38:54;;;;;;;;;;;15.40;99.90;;;;;;5093648;28;19915;-63
2022/08/09 02:41:39;;;;;;;;;;;15.30;99.90;;;;;;5093572;28;19908;-64
2022/08/09 02:44:07;;;;;;;;;;;15.30;99.90;;;;;;5093392;28;19908;-64
2022/08/09 02:46:34;;;;;;;;;;;15.30;99.90;;;;;;5093359;28;19923;-63
2022/08/09 02:49:04;;;;;;;;;;;15.20;99.90;;;;;;5093623;28;19914;-63
2022/08/09 02:51:31;;;;;;;;;;;15.10;99.90;;;;;;5093606;28;19914;-63
2022/08/09 02:53:57;;;;;;;;;;;15.10;99.90;;;;;;5093338;28;19912;-63
2022/08/09 02:56:24;;;;;;;;;;;15.10;99.90;;;;;;5093562;28;19994;-63
2022/08/09 02:58:50;;;;;;;;;;;15.10;99.90;;;;;;5093202;28;19911;-63
2022/08/09 03:01:16;;;;;;;;;;;15.00;99.90;;;;;;5093263;28;19958;-64
2022/08/09 03:03:42;;;;;;;;;;;14.90;99.90;;;;;;5093174;28;19977;-64
2022/08/09 03:06:13;;;;;;;;;;;14.90;99.90;;;;;;5093006;28;19927;-63
2022/08/09 03:08:42;;;;;;;;;;;14.80;99.90;;;;;;5093676;28;19913;-63
2022/08/09 03:11:08;;;;;;;;;;;14.70;99.90;;;;;;5096900;28;19908;-63
2022/08/09 03:13:34;;;;;;;;;;;14.80;99.90;;;;;;5097162;28;20374;-63
2022/08/09 03:16:00;;;;;;;;;;;14.70;99.90;;;;;;5096879;28;19914;-63
2022/08/09 03:18:25;;;;;;;;;;;14.70;99.90;;;;;;5096841;28;19912;-63
2022/08/09 03:20:51;;;;;;;;;;;14.70;99.90;;;;;;5097000;28;19909;-63
2022/08/09 03:23:17;;;;;;;;;;;14.70;99.90;;;;;;5097038;28;20321;-63
2022/08/09 03:25:43;;;;;;;;;;;14.60;99.90;;;;;;5096873;28;19915;-64
2022/08/09 03:28:09;;;;;;;;;;;14.50;99.90;;;;;;5096981;28;19915;-63
2022/08/09 03:30:34;;;;;;;;;;;14.50;99.90;;;;;;5096628;28;19915;-63
2022/08/09 03:33:03;;;;;;;;;;;14.40;99.90;;;;;;5096497;28;19908;-63
2022/08/09 03:35:29;;;;;;;;;;;14.50;99.90;;;;;;5096673;28;19915;-63
2022/08/09 03:37:54;;;;;;;;;;;14.40;99.90;;;;;;5096752;28;19908;-63
2022/08/09 03:40:20;;;;;;;;;;;14.40;99.90;;;;;;5096639;28;19933;-63
2022/08/09 03:42:45;;;;;;;;;;;14.30;99.90;;;;;;5096362;28;19978;-63
2022/08/09 03:45:11;;;;;;;;;;;14.30;99.90;;;;;;5096595;28;19908;-63
2022/08/09 03:47:36;;;;;;;;;;;14.30;99.90;;;;;;5096178;28;20413;-63
2022/08/09 03:50:04;;;;;;;;;;;14.40;99.90;;;;;;5096372;28;19908;-63
2022/08/09 03:52:29;;;;;;;;;;;14.50;99.90;;;;;;5096184;28;19915;-63
2022/08/09 03:54:56;;;;;;;;;;;14.40;99.90;;;;;;5096388;28;19908;-63
2022/08/09 03:57:21;;;;;;;;;;;14.40;99.90;;;;;;5096326;28;20007;-63
2022/08/09 03:59:48;;;;;;;;;;;14.40;99.90;;;;;;5096313;28;20342;-63
2022/08/09 04:02:13;;;;;;;;;;;14.30;99.90;;;;;;5096036;28;19908;-63
2022/08/09 04:04:39;;;;;;;;;;;14.30;99.90;;;;;;5095935;28;20397;-63
2022/08/09 04:07:04;;;;;;;;;;;14.30;99.90;;;;;;5095642;28;19920;-63
2022/08/09 04:09:30;;;;;;;;;;;14.20;99.90;;;;;;5095875;28;19908;-63
2022/08/09 04:12:01;;;;;;;;;;;14.20;99.90;;;;;;5095785;28;19912;-64
2022/08/09 04:14:27;;;;;;;;;;;14.20;99.90;;;;;;5077579;28;19912;-63
2022/08/09 04:16:52;;;;;;;;;;;14.20;99.90;;;;;;5095876;28;19908;-63
2022/08/09 04:19:18;;;;;;;;;;;14.20;99.90;;;;;;5095715;28;20251;-63
2022/08/09 04:21:45;;;;;;;;;;;14.10;99.90;;;;;;5095871;28;19908;-64
2022/08/09 04:24:10;;;;;;;;;;;14.10;99.90;;;;;;5095826;28;19908;-63
2022/08/09 04:26:36;;;;;;;;;;;14.10;99.90;;;;;;5095389;28;20018;-63
2022/08/09 04:29:01;;;;;;;;;;;14.10;99.90;;;;;;5095718;28;19947;-63
2022/08/09 04:31:27;;;;;;;;;;;14.10;99.90;;;;;;5095653;28;19908;-63
2022/08/09 04:33:52;;;;;;;;;;;14.20;99.90;;;;;;5095592;28;20006;-63
2022/08/09 04:36:18;;;;;;;;;;;14.20;99.90;;;;;;5077454;28;19909;-63
2022/08/09 04:38:43;;;;;;;;;;;14.30;99.90;;;;;;5095510;28;19909;-63
2022/08/09 04:41:09;;;;;;;;;;;14.30;99.90;;;;;;5095267;28;19908;-63
2022/08/09 04:43:34;;;;;;;;;;;14.30;99.90;;;;;;5095164;28;19917;-63
2022/08/09 04:46:00;;;;;;;;;;;14.40;99.90;;;;;;5095029;28;19912;-63
2022/08/09 04:48:26;;;;;;;;;;;14.40;99.90;;;;;;5095043;28;20003;-63
2022/08/09 04:50:51;;;;;;;;;;;14.50;99.90;;;;;;5076861;28;19908;-63
2022/08/09 04:53:17;;;;;;;;;;;14.60;99.90;;;;;;5095224;28;19914;-63
2022/08/09 04:55:42;;;;;;;;;;;14.60;99.90;;;;;;5094925;28;20302;-63
2022/08/09 04:58:08;;;;;;;;;;;14.60;99.90;;;;;;5095139;28;19908;-63
2022/08/09 05:00:33;;;;;;;;;;;14.70;99.90;;;;;;5077017;28;19908;-63
2022/08/09 05:03:00;;;;;;;;;;;14.90;99.90;;;;;;5095003;28;19908;-63
2022/08/09 05:05:25;;;;;;;;;;;14.90;99.90;;;;;;5076545;28;20290;-63
2022/08/09 05:07:51;;;;;;;;;;;15.00;99.90;;;;;;5094847;28;19912;-63
2022/08/09 05:10:16;;;;;;;;;;;15.10;99.90;;;;;;5094653;28;20384;-63
2022/08/09 05:12:42;;;;;;;;;;;15.20;99.90;;;;;;5094891;28;20316;-63
2022/08/09 05:15:08;;;;;;;;;;;15.30;99.90;;;;;;5095101;28;19908;-63
2022/08/09 05:17:33;;;;;;;;;;;15.40;99.90;;;;;;5094774;28;19908;-63
2022/08/09 05:19:58;;;;;;;;;;;15.50;99.90;;;;;;5094554;28;20365;-63
2022/08/09 05:22:24;;;;;;;;;;;15.50;99.90;;;;;;5094698;28;20266;-63
2022/08/09 05:24:49;;;;;;;;;;;15.60;99.90;;;;;;5094663;28;19908;-63
2022/08/09 05:27:15;;;;;;;;;;;15.70;99.90;;;;;;5094566;28;19919;-63
2022/08/09 05:29:40;;;;;;;;;;;15.80;99.90;;;;;;5094605;28;20363;-64
2022/08/09 05:32:06;;;;;;;;;;;15.90;99.90;;;;;;5093965;28;19918;-63
2022/08/09 05:34:32;;;;;;;;;;;16.00;99.90;;;;;;5094233;28;19908;-64
2022/08/09 05:36:59;;;;;;;;;;;16.20;99.90;;;;;;5094438;28;20277;-63
2022/08/09 05:39:25;;;;;;;;;;;16.30;99.90;;;;;;5094481;28;20427;-63
2022/08/09 05:41:50;;;;;;;;;;;16.40;99.90;;;;;;5094412;28;19908;-64
2022/08/09 05:44:16;;;;;;;;;;;16.60;99.90;;;;;;5094114;28;19912;-64
2022/08/09 05:46:42;;;;;;;;;;;16.90;99.90;;;;;;5094246;28;20379;-64
2022/08/09 05:49:07;;;;;;;;;;;18.30;99.90;;;;;;5076214;28;19908;-63
2022/08/09 05:51:33;;;;;;;;;;;19.00;99.90;;;;;;5093999;28;20427;-67
2022/08/09 05:53:59;;;;;;;;;;;;;;;;;;5093972;28;19916;-65
2022/08/09 05:56:26;;;;;;;;;;;21.70;99.90;;;;;;5094155;28;20251;-64
2022/08/09 05:58:56;;;;;;;;;;;22.00;99.90;;;;;;5094166;28;19934;-65
2022/08/09 06:01:22;;;;;;;;;;;22.10;99.90;;;;;;5075741;28;19944;-65
2022/08/09 06:03:48;;;;;;;;;;;22.70;99.90;;;;;;5094037;28;20033;-65
2022/08/09 06:06:15;;;;;;;;;;;24.20;99.90;;;;;;5093467;28;19920;-65
2022/08/09 06:08:40;;;;;;;;;;;25.00;99.90;;;;;;5094016;28;19912;-65
2022/08/09 06:11:06;;;;;;;;;;;25.40;99.90;;;;;;5093970;28;19972;-65
2022/08/09 06:13:32;;;;;;;;;;;25.90;99.90;;;;;;5093978;28;20278;-66
2022/08/09 06:15:57;;;;;;;;;;;26.20;99.90;;;;;;5093628;28;20020;-65
2022/08/09 06:18:23;;;;;;;;;;;26.10;99.90;;;;;;5093875;28;19915;-65
2022/08/09 06:20:48;;;;;;;;;;;26.90;99.80;;;;;;5093806;28;19908;-65
2022/08/09 06:23:14;;;;;;;;;;;26.90;99.00;;;;;;5093834;28;19912;-65
2022/08/09 06:25:39;;;;;;;;;;;25.30;99.90;;;;;;5093358;28;19958;-65
2022/08/09 06:28:06;;;;;;;;;;;24.60;99.90;;;;;;5093479;28;19908;-65
2022/08/09 06:30:32;;;;;;;;;;;25.00;99.90;;;;;;5075430;28;19908;-65
2022/08/09 06:32:58;;;;;;;;;;;25.70;99.90;;;;;;5075683;28;19957;-65
2022/08/09 06:35:23;;;;;;;;;;;26.70;99.90;;;;;;5093721;28;19912;-65
2022/08/09 06:37:49;;;;;;;;;;;26.10;99.90;;;;;;5093402;28;19915;-64
2022/08/09 06:40:14;;;;;;;;;;;27.20;98.70;;;;;;5093552;28;19915;-65
2022/08/09 06:42:40;;;;;;;;;;;27.80;97.40;;;;;;5094235;28;19935;-65
2022/08/09 06:45:05;;;;;;;;;;;28.20;95.60;;;;;;5097661;28;19908;-65
2022/08/09 06:47:31;;;;;;;;;;;28.50;95.60;;;;;;5095802;28;19938;-66
2022/08/09 06:49:56;;;;;;;;;;;29.10;94.20;;;;;;5101176;28;19920;-65
2022/08/09 06:52:22;;;;;;;;;;;28.90;93.30;;;;;;5107231;28;19913;-65
2022/08/09 06:54:47;;;;;;;;;;;29.10;93.30;;;;;;5101393;28;20386;-66
2022/08/09 06:57:13;;;;;;;;;;;27.40;93.90;;;;;;5101525;28;19912;-67
2022/08/09 06:59:39;;;;;;;;;;;28.20;94.90;;;;;;5110590;28;19911;-67
2022/08/09 07:02:04;;;;;;;;;;;28.40;93.80;;;;;;5098082;28;19912;-66
2022/08/09 07:04:30;;;;;;;;;;;28.70;92.70;;;;;;5099390;28;19919;-68
2022/08/09 07:06:56;;;;;;;;;;;29.10;92.40;;;;;;5106864;28;20347;-67
2022/08/09 07:09:21;;;;;;;;;;;29.60;91.70;;;;;;5100531;28;20052;-67
2022/08/09 07:11:47;;;;;;;;;;;28.50;91.30;;;;;;5097187;28;19908;-67
2022/08/09 07:14:16;;;;;;;;;;;28.80;92.40;;;;;;5107544;28;19959;-67
2022/08/09 07:16:42;;;;;;;;;;;28.20;92.30;;;;;;5096371;28;19908;-66
2022/08/09 07:19:10;;;;;;;;;;;27.90;93.90;;;;;;5098070;28;19972;-66
2022/08/09 07:21:36;;;;;;;;;;;28.60;92.80;;;;;;5083693;28;20035;-67
2022/08/09 07:24:03;;;;;;;;;;;29.70;91.10;;;;;;5099272;28;19919;-67
2022/08/09 07:26:29;;;;;;;;;;;29.40;90.60;;;;;;5102863;28;19923;-67
2022/08/09 07:28:55;;;;;;;;;;;29.80;90.60;;;;;;5115807;28;20305;-66
2022/08/09 07:31:20;;;;;;;;;;;30.90;88.10;;;;;;5116899;28;19915;-67
2022/08/09 07:33:46;;;;;;;;;;;30.70;86.20;;;;;;5114927;28;19959;-66
2022/08/09 07:36:13;;;;;;;;;;;29.60;86.80;;;;;;5107447;28;19912;-66
2022/08/09 07:38:38;;;;;;;;;;;29.70;88.30;;;;;;5096609;28;19912;-66
2022/08/09 07:41:04;;;;;;;;;;;28.30;90.50;;;;;;5106479;28;19919;-65
2022/08/09 07:43:29;;;;;;;;;;;28.90;90.20;;;;;;5116646;28;20323;-69
2022/08/09 07:45:55;;;;;;;;;;;28.70;91.10;;;;;;5108031;28;19912;-66
2022/08/09 07:48:20;;;;;;;;;;;29.60;88.90;;;;;;5098554;28;19908;-67
2022/08/09 07:50:46;;;;;;;;;;;28.40;90.10;;;;;;5109268;28;19920;-69
2022/08/09 07:53:14;;;;;;;;;;;29.20;89.50;;;;;;5096130;28;19919;-67
2022/08/09 07:55:40;;;;;;;;;;;29.20;90.20;;;;;;5096570;28;19920;-67
2022/08/09 07:58:05;;;;;;;;;;;30.20;85.30;;;;;;5097374;28;20003;-67
2022/08/09 08:00:41;;;;;;;;;;;30.60;84.80;;;;;;5097016;28;19908;-67
2022/08/09 08:03:07;;;;;;;;;;;31.10;81.30;;;;;;5097036;28;19916;-67
2022/08/09 08:05:32;;;;;;;;;;;31.30;80.00;;;;;;5095133;28;19966;-67
2022/08/09 08:07:58;;;;;;;;;;;31.30;76.60;;;;;;5096006;28;19912;-67
2022/08/09 08:10:23;;;;;;;;;;;30.40;79.60;;;;;;5095735;28;20411;-67
2022/08/09 08:12:49;;;;;;;;;;;30.10;78.90;;;;;;5114681;28;19912;-67
2022/08/09 08:15:16;;;;;;;;;;;30.30;80.60;;;;;;5116337;28;19947;-67
2022/08/09 08:17:42;;;;;;;;;;;30.40;77.70;;;;;;5103941;28;20377;-67
2022/08/09 08:20:07;;;;;;;;;;;29.20;82.50;;;;;;5096736;28;19915;-67
2022/08/09 08:22:33;;;;;;;;;;;29.40;82.80;;;;;;5083426;28;19912;-67
2022/08/09 08:24:58;;;;;;;;;;;29.40;82.80;;;;;;5079421;28;19912;-67
2022/08/09 08:27:24;;;;;;;;;;;30.40;80.40;;;;;;5105250;28;19961;-67
2022/08/09 08:29:50;;;;;;;;;;;30.10;80.40;;;;;;5110596;28;20401;-67
2022/08/09 08:32:17;;;;;;;;;;;29.00;81.70;;;;;;5097145;28;19998;-67
2022/08/09 08:34:42;;;;;;;;;;;30.50;79.60;;;;;;5115879;28;19930;-66
2022/08/09 08:37:08;;;;;;;;;;;31.20;77.20;;;;;;5115851;28;19908;-67
2022/08/09 08:39:34;;;;;;;;;;;30.80;77.10;;;;;;5115874;28;19956;-67
2022/08/09 08:41:59;;;;;;;;;;;30.40;79.10;;;;;;5115468;28;19908;-67
2022/08/09 08:44:26;;;;;;;;;;;31.30;75.30;;;;;;5105400;28;19908;-67
2022/08/09 08:46:52;;;;;;;;;;;31.30;73.30;;;;;;5095263;28;20011;-68
2022/08/09 08:49:18;;;;;;;;;;;31.90;73.20;;;;;;5094977;28;20365;-67
2022/08/09 08:51:43;;;;;;;;;;;31.90;73.50;;;;;;5077205;28;19910;-67
2022/08/09 08:54:10;;;;;;;;;;;31.40;73.20;;;;;;5094882;28;20370;-68
2022/08/09 08:56:36;;;;;;;;;;;31.60;73.90;;;;;;5095105;28;20361;-66
2022/08/09 08:59:06;;;;;;;;;;;32.60;71.20;;;;;;5094785;28;19947;-68
2022/08/09 09:01:34;;;;;;;;;;;31.60;69.20;;;;;;5094880;28;20355;-67
2022/08/09 09:04:00;;;;;;;;;;;31.70;71.90;;;;;;5094827;28;19915;-67
2022/08/09 09:06:26;;;;;;;;;;;31.60;74.00;;;;;;5071940;28;20333;-67
2022/08/09 09:08:52;;;;;;;;;;;32.10;70.90;;;;;;5074313;28;19909;-68
2022/08/09 09:11:17;;;;;;;;;;;32.50;69.80;;;;;;5074240;28;19909;-67
2022/08/09 09:13:45;;;;;;;;;;;31.80;70.80;;;;;;5074332;28;20382;-67
2022/08/09 09:16:11;;;;;;;;;;;31.60;71.60;;;;;;5074473;28;20294;-67
2022/08/09 09:18:36;;;;;;;;;;;31.40;70.30;;;;;;5086510;28;19917;-67
2022/08/09 09:21:05;;;;;;;;;;;31.50;70.20;;;;;;5075231;28;20286;-67
2022/08/09 09:23:46;;;;;;;;;;;31.50;69.90;;;;;;5081650;28;20382;-68
2022/08/09 09:26:12;;;;;;;;;;;31.80;69.40;;;;;;5074080;28;19912;-68
2022/08/09 09:28:42;;;;;;;;;;;31.80;68.50;;;;;;5075237;28;19912;-67
2022/08/09 09:31:11;;;;;;;;;;;32.40;67.40;;;;;;5076109;28;20404;-68
2022/08/09 09:33:36;;;;;;;;;;;32.90;65.50;;;;;;5085320;28;20382;-67
2022/08/09 09:36:04;;;;;;;;;;;31.90;66.70;;;;;;5106593;28;19996;-67
2022/08/09 09:38:49;;;;;;;;;;;32.70;66.20;;;;;;5085607;28;20283;-67
2022/08/09 09:44:03;;;;;;;;;;;33.00;63.40;;;;;;5070336;28;19916;-67
2022/08/09 09:46:29;;;;;;;;;;;32.20;64.60;;;;;;5070527;28;19951;-68
2022/08/09 09:48:56;;;;;;;;;;;31.40;65.50;;;;;;5070326;28;19912;-68
2022/08/09 09:51:21;;;;;;;;;;;31.40;66.20;;;;;;5070988;28;19919;-67
2022/08/09 09:54:00;;;;;;;;;;;31.90;66.50;;;;;;5070375;28;19909;-67
2022/08/09 09:56:34;;;;;;;;;;;31.40;66.40;;;;;;5070659;28;19912;-67
2022/08/09 09:59:00;;;;;;;;;;;31.90;64.40;;;;;;5070224;28;19913;-68
2022/08/09 10:01:25;;;;;;;;;;;31.80;65.40;;;;;;5070509;28;19913;-67
2022/08/09 10:03:52;;;;;;;;;;;31.20;64.30;;;;;;5070389;28;20007;-67
2022/08/09 10:06:17;;;;;;;;;;;31.60;65.60;;;;;;5070430;28;20000;-68
2022/08/09 10:08:44;;;;;;;;;;;32.30;62.40;;;;;;5070365;28;20379;-68
2022/08/09 10:11:18;;;;;;;;;;;31.70;63.20;;;;;;5070391;28;19909;-68
2022/08/09 10:13:44;;;;;;;;;;;32.00;63.00;;;;;;5065829;28;20082;-67
2022/08/09 10:16:10;;;;;;;;;;;31.70;62.70;;;;;;5070276;28;20411;-67
2022/08/09 10:18:36;;;;;;;;;;;31.30;62.00;;;;;;5070227;28;20287;-67
2022/08/09 10:21:08;;;;;;;;;;;31.00;63.30;;;;;;5069293;28;19909;-68
2022/08/09 10:23:35;;;;;;;;;;;31.80;61.30;;;;;;5070091;28;19939;-67
2022/08/09 10:26:01;;;;;;;;;;;32.30;62.40;;;;;;5069804;28;19909;-67
2022/08/09 10:28:28;;;;;;;;;;;31.90;63.10;;;;;;5068102;28;20376;-67
2022/08/09 10:30:54;;;;;;;;;;;31.60;63.60;;;;;;5069855;28;20019;-67
2022/08/09 10:33:19;;;;;;;;;;;31.40;63.10;;;;;;5069040;28;19952;-67
2022/08/09 10:35:45;;;;;;;;;;;32.20;62.60;;;;;;5069683;28;19909;-68
2022/08/09 10:38:11;;;;;;;;;;;32.30;61.60;;;;;;5068514;28;19912;-66
2022/08/09 10:40:37;;;;;;;;;;;31.50;62.80;;;;;;5069719;28;19909;-67
2022/08/09 10:43:03;;;;;;;;;;;32.30;61.50;;;;;;5082030;28;19924;-67
2022/08/09 10:45:30;;;;;;;;;;;31.20;62.80;;;;;;5071857;28;19915;-68
2022/08/09 10:48:01;;;;;;;;;;;31.80;63.90;;;;;;5090189;28;19909;-67
2022/08/09 10:51:05;;;;;;;;;;;31.20;62.80;;;;;;5090153;28;20378;-67
2022/08/09 10:53:33;;;;;;;;;;;31.00;64.30;;;;;;5088462;28;19916;-67
2022/08/09 10:56:19;;;;;;;;;;;30.80;63.50;;;;;;5076211;28;19932;-68
2022/08/09 10:58:45;;;;;;;;;;;30.50;62.60;;;;;;5076094;28;20430;-68
2022/08/09 11:01:30;;;;;;;;;;;30.40;65.50;;;;;;5076412;28;19991;-67
2022/08/09 11:04:13;;;;;;;;;;;30.00;64.10;;;;;;5075938;28;19927;-68
2022/08/09 11:06:40;;;;;;;;;;;29.70;64.80;;;;;;5076381;28;20393;-67
2022/08/09 11:09:06;;;;;;;;;;;28.90;65.10;;;;;;5076044;28;19909;-67
2022/08/09 11:11:52;;;;;;;;;;;29.10;66.50;;;;;;5058382;28;19916;-67
2022/08/09 11:14:34;;;;;;;;;;;28.70;68.00;;;;;;5075868;28;19983;-66
2022/08/09 11:17:01;;;;;;;;;;;28.70;69.10;;;;;;5075885;28;19908;-66
2022/08/09 11:19:46;;;;;;;;;;;28.60;68.20;;;;;;5075825;28;20371;-66
2022/08/09 11:22:12;;;;;;;;;;;28.70;69.90;;;;;;5075577;28;20477;-66
2022/08/09 11:24:57;;;;;;;;;;;29.20;68.20;;;;;;5075653;28;20011;-66
2022/08/09 11:27:29;;;;;;;;;;;29.30;70.20;;;;;;5075428;28;19908;-66
2022/08/09 11:29:54;;;;;;;;;;;29.10;69.40;;;;;;5057637;28;19909;-66
2022/08/09 11:32:40;;;;;;;;;;;29.30;67.80;;;;;;5075810;28;19938;-66
2022/08/09 11:35:07;;;;;;;;;;;29.00;66.90;;;;;;5075358;28;19960;-65
2022/08/09 11:37:34;;;;;;;;;;;28.80;67.70;;;;;;5075743;28;20402;-66
2022/08/09 11:40:01;;;;;;;;;;;28.50;68.70;;;;;;5075460;28;19908;-66
2022/08/09 11:42:45;;;;;;;;;;;28.60;69.30;;;;;;5075285;28;19982;-66
2022/08/09 11:45:28;;;;;;;;;;;28.90;70.40;;;;;;5057569;28;20367;-66
2022/08/09 11:47:56;;;;;;;;;;;28.60;68.20;;;;;;5073174;28;19912;-66
2022/08/09 11:50:22;;;;;;;;;;;28.80;67.50;;;;;;5073350;28;19919;-66
2022/08/09 11:55:41;;;;;;;;;;;29.60;67.90;;;;;;5069333;28;19919;-67
2022/08/09 12:00:49;;;;;;;;;;;28.90;68.80;;;;;;5089433;27;19912;-67
2022/08/09 12:03:15;;;;;;;;;;;28.90;69.80;;;;;;5091263;28;19913;-67
2022/08/09 12:05:41;;;;;;;;;;;29.10;69.20;;;;;;5091026;28;20374;-67
2022/08/09 12:08:08;;;;;;;;;;;29.30;67.20;;;;;;5091224;28;19908;-66
2022/08/09 12:10:34;;;;;;;;;;;29.00;67.60;;;;;;5091143;28;19936;-66
2022/08/09 12:12:59;;;;;;;;;;;29.40;68.00;;;;;;5091121;28;19935;-67
2022/08/09 12:15:26;;;;;;;;;;;29.30;66.50;;;;;;5091068;28;19908;-66
2022/08/09 12:17:52;;;;;;;;;;;29.20;66.90;;;;;;5090968;28;19916;-66
2022/08/09 12:20:20;;;;;;;;;;;28.90;68.70;;;;;;5089385;28;19912;-66
2022/08/09 12:22:46;;;;;;;;;;;29.30;67.90;;;;;;5090593;28;19908;-66
2022/08/09 12:25:12;;;;;;;;;;;28.80;66.90;;;;;;5123676;28;19947;-67
2022/08/09 12:27:38;;;;;;;;;;;29.10;69.20;;;;;;5090852;28;19908;-66
2022/08/09 12:30:06;;;;;;;;;;;28.70;67.90;;;;;;5090443;28;20464;-67
2022/08/09 12:32:32;;;;;;;;;;;28.50;68.70;;;;;;5090711;28;19954;-67
2022/08/09 12:34:59;;;;;;;;;;;28.90;68.50;;;;;;5090469;28;19915;-66
2022/08/09 12:37:32;;;;;;;;;;;29.10;67.80;;;;;;5090653;28;19908;-66
2022/08/09 12:39:59;;;;;;;;;;;29.10;67.90;;;;;;5093818;28;19962;-67
2022/08/09 12:42:25;;;;;;;;;;;29.40;68.50;;;;;;5107070;28;20354;-66
2022/08/09 12:44:50;;;;;;;;;;;29.50;66.30;;;;;;5107916;28;19939;-67
2022/08/09 12:47:16;;;;;;;;;;;29.20;67.60;;;;;;5097378;28;19913;-66
2022/08/09 12:49:42;;;;;;;;;;;29.00;67.90;;;;;;5102499;28;19967;-65
2022/08/09 12:52:09;;;;;;;;;;;29.40;67.30;;;;;;5094757;28;19916;-65
2022/08/09 12:54:50;;;;;;;;;;;28.70;68.30;;;;;;5090287;28;19947;-65
2022/08/09 12:57:33;;;;;;;;;;;28.30;69.10;;;;;;5100140;28;19912;-65
2022/08/09 13:00:20;;;;;;;;;;;28.70;69.10;;;;;;5116882;28;19923;-65
2022/08/09 13:02:51;;;;;;;;;;;28.80;66.60;;;;;;5129453;28;19995;-66
2022/08/09 13:05:17;;;;;;;;;;;29.20;67.00;;;;;;5130016;28;19908;-65
2022/08/09 13:08:02;;;;;;;;;;;29.30;66.60;;;;;;5130993;28;19953;-66
2022/08/09 13:10:28;;;;;;;;;;;29.20;66.80;;;;;;5126543;28;19907;-65
2022/08/09 13:12:54;;;;;;;;;;;29.10;65.30;;;;;;5116885;28;19915;-65
2022/08/09 13:15:19;;;;;;;;;;;29.00;67.00;;;;;;5116814;28;19998;-66
2022/08/09 13:17:45;;;;;;;;;;;29.10;65.90;;;;;;5117101;28;19915;-66
2022/08/09 13:20:10;;;;;;;;;;;29.20;65.50;;;;;;5116730;28;20007;-65
2022/08/09 13:22:45;;;;;;;;;;;28.70;67.40;;;;;;5117067;28;20400;-66
2022/08/09 13:25:11;;;;;;;;;;;28.80;67.40;;;;;;5098444;28;19907;-65
2022/08/09 13:27:38;;;;;;;;;;;29.10;65.90;;;;;;5116671;28;19908;-66
2022/08/09 13:30:18;;;;;;;;;;;29.10;66.00;;;;;;5116414;28;19940;-66
2022/08/09 13:32:48;;;;;;;;;;;29.10;66.00;;;;;;5116471;28;19915;-66
2022/08/09 13:35:15;;;;;;;;;;;28.70;65.60;;;;;;5098258;28;19922;-67
2022/08/09 13:37:41;;;;;;;;;;;28.70;66.20;;;;;;5116738;28;19959;-66
2022/08/09 13:40:08;;;;;;;;;;;28.80;67.40;;;;;;5116272;28;19911;-66
2022/08/09 13:42:34;;;;;;;;;;;29.10;66.70;;;;;;5116619;28;20278;-66
2022/08/09 13:45:01;;;;;;;;;;;28.90;65.10;;;;;;5116592;28;19911;-67
2022/08/09 13:47:27;;;;;;;;;;;28.80;66.80;;;;;;5116491;28;20358;-66
2022/08/09 13:49:52;;;;;;;;;;;29.00;65.80;;;;;;5116265;28;19951;-66
2022/08/09 13:52:18;;;;;;;;;;;28.90;67.30;;;;;;5116415;28;19908;-66
2022/08/09 13:54:43;;;;;;;;;;;29.20;66.90;;;;;;5116408;28;19908;-66
2022/08/09 13:57:09;;;;;;;;;;;29.30;66.70;;;;;;5116047;28;19994;-66
2022/08/09 13:59:35;;;;;;;;;;;29.50;66.40;;;;;;5115706;28;19924;-66
2022/08/09 14:02:01;;;;;;;;;;;29.30;65.60;;;;;;5116232;28;19907;-67
2022/08/09 14:04:27;;;;;;;;;;;29.40;66.30;;;;;;5115840;28;19968;-67
2022/08/09 14:06:54;;;;;;;;;;;29.30;65.10;;;;;;5115711;28;19997;-67
2022/08/09 14:09:19;;;;;;;;;;;29.10;66.00;;;;;;5115726;28;19912;-66
2022/08/09 14:11:45;;;;;;;;;;;29.10;65.90;;;;;;5097635;28;19907;-66
2022/08/09 14:14:10;;;;;;;;;;;29.10;65.90;;;;;;5097530;28;19907;-66
2022/08/09 14:16:36;;;;;;;;;;;28.40;65.70;;;;;;5115979;28;19912;-66
2022/08/09 14:19:01;;;;;;;;;;;28.50;66.40;;;;;;5115510;28;19912;-66
2022/08/09 14:21:27;;;;;;;;;;;28.50;66.40;;;;;;5097470;28;19914;-66
2022/08/09 14:23:53;;;;;;;;;;;28.70;66.00;;;;;;5114588;28;19908;-66
2022/08/09 14:26:19;;;;;;;;;;;28.70;65.80;;;;;;5115800;28;19908;-66
2022/08/09 14:28:44;;;;;;;;;;;28.90;65.90;;;;;;5115704;28;19941;-66
2022/08/09 14:31:10;;;;;;;;;;;28.70;66.00;;;;;;5115660;28;20052;-66